Weather History for Copper Mountain, CO

Change the Weather History Date:

Sunday, April 21, 2013

  Actual Average (KLXV) Record (KLXV)
Temperature  
Mean Temperature 28 °F -  
Max Temperature 33 °F 45 °F 62 °F (1989)
Min Temperature 23 °F 20 °F 6 °F (1993)
Degree Days  
Heating Degree Days 37 32  
Month to date heating degree days 740  
Since 1 July heating degree days 9723  
Cooling Degree Days 0 0  
Month to date cooling degree days 0  
Year to date cooling degree days 0  
Moisture  
Dew Point 18 °F    
Average Humidity 70    
Maximum Humidity 86    
Minimum Humidity 44    
Precipitation  
Precipitation 0.02 in 0.03 in 0.34 in (2011)
Month to date precipitation 0.75  
Year to date precipitation 3.01  
Sea Level Pressure  
Sea Level Pressure 30.19 in    
Wind  
Wind Speed 16 mph (WSW)    
Max Wind Speed 24 mph    
Max Gust Speed 36 mph    
Visibility 5 miles    
Events Snow    
T = Trace of Precipitation, MM = Missing Value Source: NWS Daily Summary

Daily Weather History Graph

Daily Weather History Graph

Search for Another Location

Airport:

Trip Planner

Search our weather history database for the weather conditions in past years. The results will help you decide how hot, cold, wet, or windy it might be!

Date:

Astronomy

Apr. 21, 2013 Rise Set
Actual Time 6:18 AM MDT 7:48 PM MDT
Civil Twilight 5:50 AM MDT 8:17 PM MDT
Nautical Twilight 5:16 AM MDT 8:51 PM MDT
Astronomical Twilight 4:40 AM MDT 9:27 PM MDT
Moon 3:38 PM MDT (4/21) 3:40 AM MDT (4/21)
Length of Visible Light 14h 26m
Length of Day
13h 30m
Waxing Gibbous, 80% of the Moon is Illuminated
Apr 21
Waxing Gibbous
Apr 25
Full
May 2
Last Quarter
May 9
New
May 17
First Quarter

Hourly Weather History & Observations

Time (MDT) Temp. Windchill Dew Point Humidity Pressure Visibility Wind Dir Wind Speed Gust Speed Precip Events Conditions
12:12 AM 24.8 °F 10.7 °F 19.4 °F 80% 30.15 in 1.0 mi West 19.6 mph 26.5 mph N/A Snow Light Snow
12:32 AM 24.8 °F 11.5 °F 19.4 °F 80% 30.16 in 2.0 mi West 17.3 mph - N/A Snow Light Snow
12:52 AM 24.8 °F 12.9 °F 19.4 °F 80% 30.16 in 1.5 mi West 13.8 mph - N/A Snow Light Snow
1:12 AM 24.8 °F 12.4 °F 19.4 °F 80% 30.16 in 0.8 mi West 15.0 mph - N/A Snow Snow
1:32 AM 23.0 °F 9.2 °F 19.4 °F 86% 30.16 in 0.5 mi West 17.3 mph - N/A Snow Snow
1:52 AM 23.0 °F 10.1 °F 19.4 °F 86% 30.15 in 0.5 mi West 15.0 mph - N/A Snow Snow
2:12 AM 23.0 °F 7.6 °F 17.6 °F 80% 30.15 in 0.8 mi West 21.9 mph - N/A Snow Light Snow
2:32 AM 23.0 °F - 17.6 °F 80% 30.15 in 0.5 mi North - - N/A Snow Snow
2:52 AM 23.0 °F 8.0 °F 17.6 °F 80% 30.15 in 0.2 mi West 20.7 mph - N/A Snow Snow
3:12 AM 23.0 °F 10.1 °F 17.6 °F 80% 30.16 in 0.2 mi West 15.0 mph - N/A Snow Snow
3:32 AM 23.0 °F 9.6 °F 17.6 °F 80% 30.15 in 0.2 mi West 16.1 mph - N/A Snow Snow
3:52 AM 23.0 °F 9.6 °F 17.6 °F 80% 30.16 in 0.2 mi West 16.1 mph - N/A Snow Snow
4:12 AM 23.0 °F 11.1 °F 17.6 °F 80% 30.16 in 0.2 mi West 12.7 mph 17.3 mph N/A Snow Snow
4:32 AM 23.0 °F - 17.6 °F 80% 30.15 in 0.2 mi North - - N/A Snow Snow
4:52 AM 23.0 °F - 17.6 °F 80% 30.16 in 0.2 mi North - - N/A Snow Light Snow
5:12 AM 23.0 °F 8.7 °F 17.6 °F 80% 30.17 in 0.5 mi West 18.4 mph 26.5 mph N/A Snow Light Snow
5:32 AM 23.0 °F - 17.6 °F 80% 30.17 in 2.0 mi North - - N/A Snow Light Snow
5:52 AM 23.0 °F - 17.6 °F 80% 30.18 in 5.0 mi North - - N/A   Haze
6:12 AM 23.0 °F 10.1 °F 17.6 °F 80% 30.18 in 7.0 mi West 15.0 mph - N/A Snow Light Snow
6:32 AM 23.0 °F 8.3 °F 17.6 °F 80% 30.19 in 2.0 mi West 19.6 mph 27.6 mph N/A Snow Light Snow
6:52 AM 23.0 °F 10.1 °F 17.6 °F 80% 30.19 in 3.0 mi West 15.0 mph - N/A Snow Light Snow
7:12 AM 23.0 °F 8.0 °F 17.6 °F 80% 30.19 in 4.0 mi West 20.7 mph - N/A Snow Light Snow
7:32 AM 23.0 °F 8.3 °F 17.6 °F 80% 30.20 in 2.5 mi West 19.6 mph 25.3 mph N/A Snow Light Snow
7:52 AM 23.0 °F 9.6 °F 17.6 °F 80% 30.20 in 10.0 mi West 16.1 mph 21.9 mph N/A   Overcast
8:12 AM 23.0 °F 9.2 °F 17.6 °F 80% 30.20 in 10.0 mi West 17.3 mph 21.9 mph N/A   Overcast
8:32 AM 23.0 °F 10.1 °F 17.6 °F 80% 30.20 in 10.0 mi West 15.0 mph - N/A   Overcast
8:52 AM 23.0 °F 10.1 °F 17.6 °F 80% 30.21 in 10.0 mi West 15.0 mph - N/A   Overcast
9:12 AM 23.0 °F 12.4 °F 17.6 °F 80% 30.21 in 7.0 mi West 10.4 mph - N/A Snow Light Snow
9:32 AM 23.0 °F 10.6 °F 17.6 °F 80% 30.21 in 7.0 mi WSW 13.8 mph 20.7 mph N/A   Overcast
9:52 AM 24.8 °F 14.0 °F 19.4 °F 80% 30.21 in 10.0 mi West 11.5 mph - N/A   Overcast
10:12 AM 24.8 °F 10.0 °F 19.4 °F 80% 30.21 in 5.0 mi West 21.9 mph 28.8 mph N/A   Haze
10:32 AM 24.8 °F 11.1 °F 19.4 °F 80% 30.22 in 10.0 mi West 18.4 mph - N/A   Mostly Cloudy
10:52 AM 24.8 °F 11.9 °F 19.4 °F 80% 30.22 in 10.0 mi West 16.1 mph - N/A   Scattered Clouds
11:12 AM 26.6 °F 14.3 °F 17.6 °F 69% 30.22 in 10.0 mi West 16.1 mph 23.0 mph N/A   Mostly Cloudy
11:32 AM 28.4 °F 18.0 °F 15.8 °F 59% 30.22 in 10.0 mi West 12.7 mph 23.0 mph N/A   Mostly Cloudy
11:52 AM 30.2 °F 18.5 °F 17.6 °F 60% 30.21 in 10.0 mi West 17.3 mph 20.7 mph N/A   Mostly Cloudy
12:12 PM 30.2 °F 24.3 °F 17.6 °F 60% 30.21 in 10.0 mi West 5.8 mph 16.1 mph 0.01 in   Overcast
12:32 PM 32.0 °F 27.5 °F 17.6 °F 55% 30.21 in 10.0 mi WSW 4.6 mph - 0.01 in   Overcast
12:52 PM 32.0 °F 23.6 °F 19.4 °F 60% 30.21 in 10.0 mi WSW 10.4 mph 17.3 mph 0.01 in   Overcast
1:12 PM 32.0 °F 24.2 °F 19.4 °F 60% 30.21 in 10.0 mi West 9.2 mph 24.2 mph N/A   Mostly Cloudy
1:32 PM 33.8 °F 25.8 °F 17.6 °F 52% 30.21 in 10.0 mi WSW 10.4 mph 24.2 mph N/A   Mostly Cloudy
1:52 PM 33.8 °F 25.8 °F 19.4 °F 56% 30.21 in 10.0 mi SW 10.4 mph - N/A   Mostly Cloudy
2:12 PM 32.0 °F 25.6 °F 17.6 °F 55% 30.21 in 10.0 mi SW 6.9 mph 17.3 mph 0.01 in   Mostly Cloudy
2:32 PM 33.8 °F 24.3 °F 17.6 °F 52% 30.21 in 10.0 mi WSW 13.8 mph - 0.01 in   Mostly Cloudy
2:52 PM 33.8 °F 21.6 °F 14.0 °F 44% 30.20 in 10.0 mi West 23.0 mph 29.9 mph 0.01 in   Mostly Cloudy
3:12 PM 33.8 °F 24.3 °F 14.0 °F 44% 30.20 in 4.0 mi WSW 13.8 mph 32.2 mph N/A   Haze
3:32 PM 33.8 °F 21.6 °F 14.0 °F 44% 30.19 in 7.0 mi West 23.0 mph 31.1 mph N/A   Mostly Cloudy
3:52 PM 33.8 °F 24.8 °F 15.8 °F 48% 30.20 in 10.0 mi WSW 12.7 mph 25.3 mph N/A   Mostly Cloudy
4:12 PM 32.0 °F 19.5 °F 17.6 °F 55% 30.20 in 5.0 mi West 21.9 mph 29.9 mph N/A   Haze
4:32 PM 32.0 °F 21.2 °F 17.6 °F 55% 30.20 in 10.0 mi WSW 16.1 mph 21.9 mph N/A   Overcast
4:52 PM 30.2 °F 18.9 °F 15.8 °F 55% 30.19 in 7.0 mi WSW 16.1 mph 23.0 mph N/A   Overcast
5:12 PM 33.8 °F 23.9 °F 17.6 °F 52% 30.19 in 10.0 mi West 15.0 mph 25.3 mph N/A   Overcast
5:32 PM 30.2 °F 24.3 °F 17.6 °F 60% 30.20 in 10.0 mi SW 5.8 mph - N/A   Overcast
5:52 PM 28.4 °F 20.4 °F 21.2 °F 74% 30.20 in 0.5 mi SW 8.1 mph 19.6 mph N/A Snow Light Snow
6:12 PM 30.2 °F 21.9 °F 19.4 °F 64% 30.20 in 5.0 mi South 9.2 mph - N/A   Haze
6:32 PM 28.4 °F 17.5 °F 19.4 °F 69% 30.20 in 7.0 mi SW 13.8 mph 21.9 mph N/A   Overcast
6:52 PM 28.4 °F 14.1 °F 19.4 °F 69% 30.19 in 0.2 mi WSW 24.2 mph 28.8 mph N/A Snow Heavy Snow
7:12 PM 26.6 °F 12.0 °F 21.2 °F 80% 30.19 in 0.2 mi WSW 23.0 mph 35.7 mph N/A Snow Heavy Snow
7:32 PM 28.4 °F 18.5 °F 17.6 °F 64% 30.20 in 1.0 mi WSW 11.5 mph 32.2 mph N/A Snow Light Snow
7:52 PM 28.4 °F 18.5 °F 19.4 °F 69% 30.20 in 10.0 mi WSW 11.5 mph 17.3 mph N/A   Overcast
8:12 PM 28.4 °F 18.5 °F 19.4 °F 69% 30.20 in 10.0 mi SSW 11.5 mph 16.1 mph N/A   Overcast
8:32 PM 28.4 °F 17.0 °F 19.4 °F 69% 30.19 in 0.8 mi SW 15.0 mph 25.3 mph N/A Snow Light Snow
8:52 PM 28.4 °F 15.4 °F 19.4 °F 69% 30.19 in 1.2 mi South 19.6 mph 24.2 mph N/A Snow Light Snow
9:12 PM 28.4 °F 17.0 °F 19.4 °F 69% 30.19 in 3.0 mi SW 15.0 mph 20.7 mph N/A   Haze
9:32 PM 28.4 °F 17.5 °F 19.4 °F 69% 30.19 in 1.0 mi SW 13.8 mph 24.2 mph N/A Snow Light Snow
9:52 PM 28.4 °F 17.5 °F 19.4 °F 69% 30.20 in 5.0 mi SSW 13.8 mph 23.0 mph N/A Snow Light Snow
10:12 PM 28.4 °F 20.4 °F 21.2 °F 74% 30.20 in 2.0 mi SW 8.1 mph 20.7 mph N/A Snow Light Snow
10:32 PM 28.4 °F 19.7 °F 19.4 °F 69% 30.19 in 4.0 mi SSW 9.2 mph - N/A Snow Light Snow
10:52 PM 28.4 °F 16.6 °F 17.6 °F 64% 30.17 in 2.5 mi SW 16.1 mph 29.9 mph N/A Snow Light Snow
11:12 PM 28.4 °F 17.5 °F 17.6 °F 64% 30.17 in 2.0 mi SW 13.8 mph 21.9 mph N/A Snow Light Snow
11:32 PM 28.4 °F 17.0 °F 17.6 °F 64% 30.15 in 1.5 mi SW 15.0 mph 25.3 mph N/A Snow Light Snow
11:52 PM 28.4 °F 16.6 °F 15.8 °F 59% 30.15 in 1.8 mi SW 16.1 mph 32.2 mph N/A Snow Light Snow